Strahan, Australia
Current Conditions -  °F | °C
As of 1:00 PM on Sunday 26 Oct 2014 (Local Time) from YMLT Reporting Station
Broken Clouds Broken Clouds  
Wind Chill: 63°   Ceiling: 4800
Heat Index: 63°   Visibility: 6mi
Dew Point: 55°   Wind: 8mph
Humidity: 77%   Direction: 210°SSW
Pressure: 29.88"   Gusts: NA
Location:  42.16°S, 145.33°E
Report Text: YMLT 260200Z AUTO 21007KT 9999 // BKN048 BKN057 BKN072 17/13 Q1012
Loading
Personal Weather Stations






























Interactive Weather Map
Tropical Storm Tracking
New forecast layout! Learn more

10-Day Weather Forecast

Advertisements
Track Severe Weather on mobile